Time;durP1;ratioP1;P1;durP2;ratioP2;P2;SDS_P1;SDS_P2;PMS_P1;PMS_P2;Temp;Humidity;BMP_temperature;BMP_pressure;BME280_temperature;BME280_humidity;BME280_pressure;Samples;Min_cycle;Max_cycle;Signal;HPM_P1;HPM_P2
2022/01/03 00:01:43;;;;;;;;;;;10.60;99.90;;;;;;10093895;28;85056;-53
2022/01/03 00:06:44;;;;;;;;;;;10.60;99.90;;;;;;10091957;28;84155;-53
2022/01/03 00:11:45;;;;;;;;;;;10.60;99.90;;;;;;10094224;28;84163;-52
2022/01/03 00:16:46;;;;;;;;;;;10.60;99.90;;;;;;10076648;28;85949;-54
2022/01/03 00:21:48;;;;;;;;;;;10.60;99.90;;;;;;10078918;29;85928;-51
2022/01/03 00:26:53;;;;;;;;;;;10.60;99.90;;;;;;10106528;28;85729;-51
2022/01/03 00:31:55;;;;;;;;;;;10.60;99.90;;;;;;10089859;29;84929;-48
2022/01/03 00:36:57;;;;;;;;;;;10.60;99.90;;;;;;10105771;28;85008;-53
2022/01/03 00:41:58;;;;;;;;;;;10.60;99.90;;;;;;10092336;28;85778;-52
2022/01/03 00:46:59;;;;;;;;;;;10.60;99.90;;;;;;10091436;28;85987;-50
2022/01/03 00:52:00;;;;;;;;;;;10.60;99.90;;;;;;10090471;28;85026;-52
2022/01/03 00:57:06;;;;;;;;;;;10.50;99.90;;;;;;10105851;28;86966;-55
2022/01/03 01:02:08;;;;;;;;;;;10.50;99.90;;;;;;10091275;28;84017;-53
2022/01/03 01:07:09;;;;;;;;;;;10.50;99.90;;;;;;10074091;29;84326;-56
2022/01/03 01:12:12;;;;;;;;;;;10.40;99.90;;;;;;10089676;28;84670;-49
2022/01/03 01:17:14;;;;;;;;;;;10.10;99.90;;;;;;10087373;28;86667;-52
2022/01/03 01:22:19;;;;;;;;;;;10.00;99.90;;;;;;10103914;28;85019;-49
2022/01/03 01:32:43;;;;;;;;;;;9.90;99.90;;;;;;10101669;28;84008;-54
2022/01/03 01:37:46;;;;;;;;;;;9.90;99.90;;;;;;10102332;28;85808;-50
2022/01/03 01:42:47;;;;;;;;;;;10.00;99.90;;;;;;10087140;28;84793;-53
2022/01/03 01:47:51;;;;;;;;;;;10.10;99.90;;;;;;10086223;29;85952;-53
2022/01/03 01:52:53;;;;;;;;;;;10.10;99.90;;;;;;10102085;28;85841;-51
2022/01/03 01:57:58;;;;;;;;;;;10.20;99.90;;;;;;10087025;28;84924;-50
2022/01/03 02:03:07;;;;;;;;;;;10.20;99.90;;;;;;10086166;29;85811;-56
2022/01/03 02:08:28;;;;;;;;;;;10.30;99.90;;;;;;10086087;29;86826;-51
2022/01/03 02:13:33;;;;;;;;;;;10.30;99.90;;;;;;10087220;28;85121;-51
2022/01/03 02:18:35;;;;;;;;;;;10.30;99.90;;;;;;10085920;28;86395;-49
2022/01/03 02:23:37;;;;;;;;;;;10.30;99.90;;;;;;10086073;28;86117;-51
2022/01/03 02:28:38;;;;;;;;;;;10.30;99.90;;;;;;10070777;29;87133;-50
2022/01/03 02:33:40;;;;;;;;;;;10.30;99.90;;;;;;10101171;28;85535;-52
2022/01/03 02:38:43;;;;;;;;;;;10.30;99.90;;;;;;10101192;28;87136;-51
2022/01/03 02:43:44;;;;;;;;;;;10.30;99.90;;;;;;10100684;28;86845;-49
2022/01/03 02:48:45;;;;;;;;;;;10.40;99.90;;;;;;10085300;28;84763;-50
2022/01/03 02:53:46;;;;;;;;;;;10.40;99.90;;;;;;10069135;28;84916;-52
2022/01/03 02:58:48;;;;;;;;;;;10.40;99.90;;;;;;10164290;23;84769;-53
2022/01/03 03:03:50;;;;;;;;;;;10.40;99.90;;;;;;10208386;28;86922;-58
2022/01/03 03:08:51;;;;;;;;;;;10.40;99.90;;;;;;10224949;28;86008;-58
2022/01/03 03:13:52;;;;;;;;;;;10.40;99.90;;;;;;10208680;28;85773;-54
2022/01/03 03:18:53;;;;;;;;;;;10.40;99.90;;;;;;10209907;28;84912;-54
2022/01/03 03:23:53;;;;;;;;;;;10.50;99.90;;;;;;10210457;28;84348;-59
2022/01/03 03:28:54;;;;;;;;;;;10.50;99.90;;;;;;10210245;28;84183;-55
2022/01/03 03:33:56;;;;;;;;;;;10.50;99.90;;;;;;10208888;28;86775;-55
2022/01/03 03:38:57;;;;;;;;;;;10.50;99.90;;;;;;10207507;28;85712;-56
2022/01/03 03:43:58;;;;;;;;;;;10.40;99.90;;;;;;10208055;28;85741;-54
2022/01/03 03:48:59;;;;;;;;;;;10.40;99.90;;;;;;10207898;28;85840;-56
2022/01/03 03:53:59;;;;;;;;;;;10.40;99.90;;;;;;10208457;28;86140;-57
2022/01/03 03:59:01;;;;;;;;;;;10.40;99.90;;;;;;10191472;28;85900;-54
2022/01/03 04:04:02;;;;;;;;;;;10.40;99.90;;;;;;10209240;28;84745;-60
2022/01/03 04:09:03;;;;;;;;;;;10.30;99.90;;;;;;10206868;28;86751;-57
2022/01/03 04:14:05;;;;;;;;;;;10.40;99.90;;;;;;10207459;28;86852;-57
2022/01/03 04:19:06;;;;;;;;;;;10.40;99.90;;;;;;10207064;28;86011;-56
2022/01/03 04:24:07;;;;;;;;;;;10.40;99.90;;;;;;10208631;28;84089;-58
2022/01/03 04:29:08;;;;;;;;;;;10.40;99.90;;;;;;10207923;28;84732;-57
2022/01/03 04:34:09;;;;;;;;;;;10.40;99.90;;;;;;10205608;28;86125;-57
2022/01/03 04:39:10;;;;;;;;;;;10.40;99.90;;;;;;10205212;28;86771;-53
2022/01/03 04:44:11;;;;;;;;;;;10.30;99.90;;;;;;10206049;28;86792;-57
2022/01/03 04:49:12;;;;;;;;;;;10.30;99.90;;;;;;10205131;28;85864;-56
2022/01/03 04:54:12;;;;;;;;;;;10.40;99.90;;;;;;10204679;28;86672;-52
2022/01/03 04:59:14;;;;;;;;;;;10.30;99.90;;;;;;10204434;28;86855;-55
2022/01/03 05:04:15;;;;;;;;;;;10.40;99.90;;;;;;10205554;28;87041;-57
2022/01/03 05:09:16;;;;;;;;;;;10.30;99.90;;;;;;10204476;28;84759;-56
2022/01/03 05:14:16;;;;;;;;;;;10.30;99.90;;;;;;10195653;28;84794;-52
2022/01/03 05:19:17;;;;;;;;;;;10.30;99.90;;;;;;10170842;28;86652;-58
2022/01/03 05:24:18;;;;;;;;;;;10.30;99.90;;;;;;10173317;28;85722;-54
2022/01/03 05:29:19;;;;;;;;;;;10.30;99.90;;;;;;10165028;28;86652;-54
2022/01/03 05:34:20;;;;;;;;;;;10.30;99.90;;;;;;10167706;28;84058;-57
2022/01/03 05:39:21;;;;;;;;;;;10.30;99.90;;;;;;10164353;28;85712;-56
2022/01/03 05:44:22;;;;;;;;;;;10.30;99.90;;;;;;10165431;28;85046;-58
2022/01/03 05:49:23;;;;;;;;;;;10.30;99.90;;;;;;10164188;28;84935;-56
2022/01/03 05:54:25;;;;;;;;;;;10.30;99.90;;;;;;10164638;28;87060;-55
2022/01/03 05:59:26;;;;;;;;;;;10.30;99.90;;;;;;10159106;28;86789;-51
2022/01/03 06:04:40;;;;;;;;;;;10.30;99.90;;;;;;10200098;28;85016;-56
2022/01/03 06:09:41;;;;;;;;;;;10.30;99.90;;;;;;10172369;28;84979;-52
2022/01/03 06:14:46;;;;;;;;;;;10.20;99.90;;;;;;10163578;28;85687;-55
2022/01/03 06:19:47;;;;;;;;;;;10.30;99.90;;;;;;10151421;28;86711;-56
2022/01/03 06:24:48;;;;;;;;;;;10.20;99.90;;;;;;10161190;28;86816;-52
2022/01/03 06:29:50;;;;;;;;;;;10.20;99.90;;;;;;10168448;28;84992;-55
2022/01/03 06:34:52;;;;;;;;;;;10.20;99.90;;;;;;10171111;28;83992;-53
2022/01/03 06:39:54;;;;;;;;;;;10.20;99.90;;;;;;10166691;28;87040;-56
2022/01/03 06:44:55;;;;;;;;;;;10.20;99.90;;;;;;10168974;28;85709;-54
2022/01/03 06:49:57;;;;;;;;;;;10.20;99.90;;;;;;10168326;28;87215;-53
2022/01/03 06:54:58;;;;;;;;;;;10.20;99.90;;;;;;10168526;28;86778;-54
2022/01/03 06:59:59;;;;;;;;;;;10.30;99.90;;;;;;10167890;28;86980;-51
2022/01/03 07:04:59;;;;;;;;;;;10.20;99.90;;;;;;10168120;28;85881;-53
2022/01/03 07:10:00;;;;;;;;;;;10.20;99.90;;;;;;10167912;28;86003;-55
2022/01/03 07:20:03;;;;;;;;;;;10.20;99.90;;;;;;10168776;28;85210;-55
2022/01/03 07:25:03;;;;;;;;;;;10.20;99.90;;;;;;10167537;28;85750;-55
2022/01/03 07:30:04;;;;;;;;;;;10.20;99.90;;;;;;10166374;28;85762;-54
2022/01/03 07:35:05;;;;;;;;;;;10.20;99.90;;;;;;10174361;28;85103;-57
2022/01/03 07:40:06;;;;;;;;;;;10.20;99.90;;;;;;10168035;28;86932;-54
2022/01/03 07:45:07;;;;;;;;;;;10.30;99.90;;;;;;10166542;28;85237;-53
2022/01/03 07:50:08;;;;;;;;;;;10.30;99.90;;;;;;10170130;28;84194;-59
2022/01/03 07:55:09;;;;;;;;;;;10.30;99.90;;;;;;10170649;28;84084;-57
2022/01/03 08:00:11;;;;;;;;;;;10.40;99.90;;;;;;10166616;28;84898;-56
2022/01/03 08:05:14;;;;;;;;;;;10.30;99.90;;;;;;10173863;28;84181;-57
2022/01/03 08:10:15;;;;;;;;;;;10.30;99.90;;;;;;10204169;28;84937;-55
2022/01/03 08:15:16;;;;;;;;;;;10.30;99.90;;;;;;10172855;28;85364;-54
2022/01/03 08:20:16;;;;;;;;;;;10.30;99.90;;;;;;10162082;28;84357;-56
2022/01/03 08:25:17;;;;;;;;;;;10.30;99.90;;;;;;10154026;28;84989;-53
2022/01/03 08:30:17;;;;;;;;;;;10.20;99.90;;;;;;10156983;28;85364;-56
2022/01/03 08:35:18;;;;;;;;;;;10.20;99.90;;;;;;10161444;28;84448;-61
2022/01/03 08:40:18;;;;;;;;;;;10.30;99.90;;;;;;10162694;28;84799;-57
2022/01/03 08:45:19;;;;;;;;;;;10.20;99.90;;;;;;10163532;28;84105;-55
2022/01/03 08:50:20;;;;;;;;;;;10.40;99.90;;;;;;10162882;28;84749;-61
2022/01/03 08:55:21;;;;;;;;;;;10.50;99.90;;;;;;10159805;28;85220;-61
2022/01/03 09:00:22;;;;;;;;;;;10.70;99.90;;;;;;10166220;28;84210;-61
2022/01/03 09:05:22;;;;;;;;;;;10.80;99.90;;;;;;10190012;28;84938;-58
2022/01/03 09:10:23;;;;;;;;;;;10.80;99.90;;;;;;10184861;28;84998;-59
2022/01/03 09:15:23;;;;;;;;;;;10.90;99.90;;;;;;10180981;28;84884;-61
2022/01/03 09:20:24;;;;;;;;;;;10.80;99.90;;;;;;10179965;28;86008;-56
2022/01/03 09:30:37;;;;;;;;;;;10.90;99.90;;;;;;10169047;28;84303;-59
2022/01/03 09:35:38;;;;;;;;;;;10.90;99.90;;;;;;10191444;28;84984;-62
2022/01/03 09:40:40;;;;;;;;;;;11.10;99.90;;;;;;10201140;28;86958;-63
2022/01/03 09:45:41;;;;;;;;;;;11.30;99.90;;;;;;10200603;28;84988;-61
2022/01/03 09:50:42;;;;;;;;;;;11.40;99.90;;;;;;10199016;28;84361;-57
2022/01/03 09:55:43;;;;;;;;;;;11.40;99.90;;;;;;10178463;28;84598;-62
2022/01/03 10:00:43;;;;;;;;;;;11.30;99.90;;;;;;10180370;28;84442;-61
2022/01/03 10:05:44;;;;;;;;;;;11.40;99.90;;;;;;10183123;28;85072;-63
2022/01/03 10:10:45;;;;;;;;;;;11.40;99.90;;;;;;10200824;28;84128;-56
2022/01/03 10:15:46;;;;;;;;;;;11.40;99.90;;;;;;10201081;28;84876;-62
2022/01/03 10:20:47;;;;;;;;;;;11.50;99.90;;;;;;10200568;28;84979;-63
2022/01/03 10:25:48;;;;;;;;;;;11.50;99.90;;;;;;10201352;28;84178;-63
2022/01/03 10:30:49;;;;;;;;;;;11.40;99.90;;;;;;10198208;28;86244;-64
2022/01/03 10:35:51;;;;;;;;;;;11.40;99.90;;;;;;10198613;28;84052;-62
2022/01/03 10:40:51;;;;;;;;;;;11.30;99.90;;;;;;10200544;28;84283;-56
2022/01/03 10:45:53;;;;;;;;;;;11.20;99.90;;;;;;10175503;28;84066;-64
2022/01/03 10:50:55;;;;;;;;;;;11.20;99.90;;;;;;10162464;28;84630;-61
2022/01/03 10:55:56;;;;;;;;;;;11.30;99.90;;;;;;10159566;28;84762;-60
2022/01/03 11:00:56;;;;;;;;;;;11.30;99.90;;;;;;10157439;28;86049;-59
2022/01/03 11:06:02;;;;;;;;;;;11.30;99.90;;;;;;10157968;28;84187;-61
2022/01/03 11:11:03;;;;;;;;;;;11.30;99.90;;;;;;10157309;28;84264;-57
2022/01/03 11:16:04;;;;;;;;;;;11.40;99.90;;;;;;10151110;28;85984;-60
2022/01/03 11:21:11;;;;;;;;;;;11.70;99.90;;;;;;10157708;28;85928;-58
2022/01/03 11:26:14;;;;;;;;;;;11.70;99.90;;;;;;10160528;28;84206;-61
2022/01/03 11:31:15;;;;;;;;;;;11.80;99.90;;;;;;10165271;28;84256;-62
2022/01/03 11:36:16;;;;;;;;;;;11.70;99.90;;;;;;10238036;23;84999;-55
2022/01/03 11:41:17;;;;;;;;;;;11.60;99.90;;;;;;10244513;28;84385;-58
2022/01/03 11:46:18;;;;;;;;;;;11.60;99.90;;;;;;10217216;28;85813;-53
2022/01/03 11:51:20;;;;;;;;;;;11.70;99.90;;;;;;10213330;28;84082;-51
2022/01/03 11:56:22;;;;;;;;;;;11.90;99.90;;;;;;10209657;28;84706;-51
2022/01/03 12:07:11;;;;;;;;;;;11.90;99.90;;;;;;10210190;28;84052;-54
2022/01/03 12:12:30;;;;;;;;;;;12.00;99.90;;;;;;10204950;28;84899;-55
2022/01/03 12:17:41;;;;;;;;;;;12.40;99.90;;;;;;10208974;28;84131;-63
2022/01/03 12:22:48;;;;;;;;;;;12.50;99.90;;;;;;10208047;28;85275;-57
2022/01/03 12:27:54;;;;;;;;;;;12.60;99.90;;;;;;10209662;28;84772;-56
2022/01/03 12:33:07;;;;;;;;;;;12.50;99.90;;;;;;10209433;28;83990;-53
2022/01/03 12:38:12;;;;;;;;;;;12.30;99.90;;;;;;10208088;28;86084;-61
2022/01/03 12:43:14;;;;;;;;;;;12.20;99.90;;;;;;10191796;28;86069;-55
2022/01/03 12:48:19;;;;;;;;;;;12.10;99.90;;;;;;10207984;28;84854;-55
2022/01/03 12:53:22;;;;;;;;;;;12.00;99.90;;;;;;10208167;28;85168;-55
2022/01/03 12:58:23;;;;;;;;;;;11.90;99.90;;;;;;10208367;28;84148;-55
2022/01/03 13:03:25;;;;;;;;;;;11.90;99.90;;;;;;10206660;28;84889;-50
2022/01/03 13:08:25;;;;;;;;;;;11.70;99.90;;;;;;10207103;28;84109;-55
2022/01/03 13:13:29;;;;;;;;;;;11.80;99.90;;;;;;10206934;28;90505;-55
2022/01/03 13:18:29;;;;;;;;;;;11.70;99.90;;;;;;10202342;28;85135;-57
2022/01/03 13:23:30;;;;;;;;;;;11.70;99.90;;;;;;10206628;28;96559;-57
2022/01/03 13:28:43;;;;;;;;;;;11.60;99.90;;;;;;10204713;28;84877;-58
2022/01/03 13:33:43;;;;;;;;;;;11.50;99.90;;;;;;10205517;28;84323;-56
2022/01/03 13:38:44;;;;;;;;;;;11.50;99.90;;;;;;10172689;28;84907;-55
2022/01/03 13:43:50;;;;;;;;;;;11.50;99.90;;;;;;10165005;28;85825;-55
2022/01/03 13:54:19;;;;;;;;;;;11.60;99.90;;;;;;10203518;28;84355;-54
2022/01/03 13:59:24;;;;;;;;;;;11.60;99.90;;;;;;10208133;28;84349;-51
2022/01/03 14:04:28;;;;;;;;;;;11.50;99.90;;;;;;10235911;28;84779;-54
2022/01/03 14:09:34;;;;;;;;;;;11.40;99.90;;;;;;10246254;28;85092;-55
2022/01/03 14:14:35;;;;;;;;;;;11.30;99.90;;;;;;10245499;28;85880;-50
2022/01/03 14:19:36;;;;;;;;;;;11.20;99.90;;;;;;10245309;28;84039;-53
2022/01/03 14:24:37;;;;;;;;;;;11.10;99.90;;;;;;10245730;28;84862;-54
2022/01/03 14:29:38;;;;;;;;;;;11.00;99.90;;;;;;10245524;28;84120;-56
2022/01/03 14:34:39;;;;;;;;;;;11.10;99.90;;;;;;10227620;28;87109;-56
2022/01/03 14:39:49;;;;;;;;;;;11.10;99.90;;;;;;10245435;28;84321;-51
2022/01/03 14:44:52;;;;;;;;;;;11.00;99.90;;;;;;10243951;28;87172;-51
2022/01/03 14:49:57;;;;;;;;;;;10.90;99.90;;;;;;10243432;28;86638;-56
2022/01/03 14:54:58;;;;;;;;;;;10.90;99.90;;;;;;10252060;28;85069;-53
2022/01/03 15:00:00;;;;;;;;;;;10.90;99.90;;;;;;10251771;28;84958;-53
2022/01/03 15:05:05;;;;;;;;;;;10.90;99.90;;;;;;10251844;28;84124;-54
2022/01/03 15:10:08;;;;;;;;;;;10.90;99.90;;;;;;10251995;28;84121;-58
2022/01/03 15:15:10;;;;;;;;;;;10.90;99.90;;;;;;10250572;28;84188;-55
2022/01/03 15:20:11;;;;;;;;;;;10.80;99.90;;;;;;10251235;28;84103;-55
2022/01/03 15:25:12;;;;;;;;;;;10.70;99.90;;;;;;10241684;28;84936;-55
2022/01/03 15:30:12;;;;;;;;;;;10.70;99.90;;;;;;10198042;28;84475;-54
2022/01/03 15:35:13;;;;;;;;;;;10.70;99.90;;;;;;10203832;28;84437;-56
2022/01/03 15:40:14;;;;;;;;;;;10.60;99.90;;;;;;10221521;28;87120;-50
2022/01/03 15:45:14;;;;;;;;;;;10.50;99.90;;;;;;10211073;28;84895;-52
2022/01/03 15:50:15;;;;;;;;;;;10.40;99.90;;;;;;10204502;28;86286;-50
2022/01/03 15:55:15;;;;;;;;;;;10.40;99.90;;;;;;10205381;28;85018;-55
2022/01/03 16:00:16;;;;;;;;;;;10.30;99.90;;;;;;10207808;28;85370;-54
2022/01/03 16:05:17;;;;;;;;;;;10.30;99.90;;;;;;10208334;28;85388;-60
2022/01/03 16:10:17;;;;;;;;;;;10.30;99.90;;;;;;10210306;28;85023;-61
2022/01/03 16:15:19;;;;;;;;;;;10.20;99.90;;;;;;10203491;28;85392;-61
2022/01/03 16:20:20;;;;;;;;;;;10.00;99.90;;;;;;10203851;28;84264;-62
2022/01/03 16:25:21;;;;;;;;;;;10.00;99.90;;;;;;10205397;28;84325;-63
2022/01/03 16:30:21;;;;;;;;;;;10.00;99.90;;;;;;10205403;28;84655;-63
2022/01/03 16:35:22;;;;;;;;;;;10.00;99.90;;;;;;10203218;28;84723;-64
2022/01/03 16:40:22;;;;;;;;;;;10.00;99.90;;;;;;10185605;28;86729;-63
2022/01/03 16:45:23;;;;;;;;;;;9.90;99.90;;;;;;10206072;28;84133;-64
2022/01/03 16:50:24;;;;;;;;;;;9.80;99.90;;;;;;10198206;28;84302;-64
2022/01/03 16:55:24;;;;;;;;;;;9.80;99.90;;;;;;10205878;28;85917;-61
2022/01/03 17:00:25;;;;;;;;;;;9.70;99.90;;;;;;10201067;28;84474;-61
2022/01/03 17:05:28;;;;;;;;;;;9.80;99.90;;;;;;10175683;28;84394;-54
2022/01/03 17:10:29;;;;;;;;;;;9.80;99.90;;;;;;10177105;28;85006;-52
2022/01/03 17:15:29;;;;;;;;;;;9.80;99.90;;;;;;10186223;28;84236;-50
2022/01/03 17:20:30;;;;;;;;;;;9.80;99.90;;;;;;10153020;28;86082;-52
2022/01/03 17:25:30;;;;;;;;;;;9.80;99.90;;;;;;10170409;28;84698;-53
2022/01/03 17:30:31;;;;;;;;;;;9.80;99.90;;;;;;10177249;28;84855;-53
2022/01/03 17:35:32;;;;;;;;;;;9.80;99.90;;;;;;10230619;23;84823;-60
2022/01/03 17:40:32;;;;;;;;;;;9.70;99.90;;;;;;10222413;28;84808;-57
2022/01/03 17:45:33;;;;;;;;;;;9.70;99.90;;;;;;10256360;28;85064;-59
2022/01/03 17:50:34;;;;;;;;;;;9.60;99.90;;;;;;10258053;28;84172;-62
2022/01/03 17:55:37;;;;;;;;;;;9.50;99.90;;;;;;10255843;28;84931;-57
2022/01/03 18:00:37;;;;;;;;;;;9.40;99.90;;;;;;10253625;28;84880;-58
2022/01/03 18:05:38;;;;;;;;;;;9.30;99.90;;;;;;10252805;28;85136;-59
2022/01/03 18:10:38;;;;;;;;;;;9.40;99.90;;;;;;10230407;28;84700;-57
2022/01/03 18:15:39;;;;;;;;;;;9.40;99.90;;;;;;10246969;28;85244;-56
2022/01/03 18:20:40;;;;;;;;;;;9.50;99.90;;;;;;10248460;28;84155;-57
2022/01/03 18:25:40;;;;;;;;;;;9.50;99.90;;;;;;10261496;28;84929;-56
2022/01/03 18:30:41;;;;;;;;;;;9.60;99.90;;;;;;10271953;28;84950;-59
2022/01/03 18:35:42;;;;;;;;;;;9.50;99.90;;;;;;10261835;28;84329;-57
2022/01/03 18:40:43;;;;;;;;;;;9.60;99.90;;;;;;10253701;28;84808;-52
2022/01/03 18:45:43;;;;;;;;;;;9.50;99.90;;;;;;10279580;28;84144;-62
2022/01/03 18:50:44;;;;;;;;;;;9.50;99.90;;;;;;10246660;28;84845;-57
2022/01/03 18:55:46;;;;;;;;;;;9.50;99.90;;;;;;10253671;28;84970;-59
2022/01/03 19:00:46;;;;;;;;;;;9.50;99.90;;;;;;10240095;28;84958;-57
2022/01/03 19:05:47;;;;;;;;;;;9.50;99.90;;;;;;10251998;28;84056;-56
2022/01/03 19:10:47;;;;;;;;;;;9.50;99.90;;;;;;10251245;28;84929;-59
2022/01/03 19:15:48;;;;;;;;;;;9.50;99.90;;;;;;10250941;28;84402;-58
2022/01/03 19:20:48;;;;;;;;;;;9.50;99.90;;;;;;10273165;28;84145;-57
2022/01/03 19:25:49;;;;;;;;;;;9.50;99.90;;;;;;10290731;28;84089;-58
2022/01/03 19:30:50;;;;;;;;;;;9.40;99.90;;;;;;10291889;28;84094;-57
2022/01/03 19:41:10;;;;;;;;;;;9.40;99.90;;;;;;10253660;28;84725;-58
2022/01/03 19:46:13;;;;;;;;;;;9.40;99.90;;;;;;10249774;28;84501;-57
2022/01/03 19:51:13;;;;;;;;;;;9.50;99.90;;;;;;10250054;28;84810;-55
2022/01/03 19:56:14;;;;;;;;;;;9.50;99.90;;;;;;10250114;28;85282;-57
2022/01/03 20:01:14;;;;;;;;;;;9.50;99.90;;;;;;10245273;28;84945;-58
2022/01/03 20:06:15;;;;;;;;;;;9.50;99.90;;;;;;10246806;28;84538;-56
2022/01/03 20:11:16;;;;;;;;;;;9.50;99.90;;;;;;10248140;28;84963;-54
2022/01/03 20:16:16;;;;;;;;;;;9.50;99.90;;;;;;10248971;28;84089;-58
2022/01/03 20:21:17;;;;;;;;;;;9.40;99.90;;;;;;10249269;28;84977;-57
2022/01/03 20:26:17;;;;;;;;;;;9.40;99.90;;;;;;10249154;28;84399;-57
2022/01/03 20:31:18;;;;;;;;;;;9.30;99.90;;;;;;10249130;28;84862;-57
2022/01/03 20:36:19;;;;;;;;;;;9.40;99.90;;;;;;10247811;28;84316;-57
2022/01/03 20:41:19;;;;;;;;;;;9.30;99.90;;;;;;10243612;28;84165;-57
2022/01/03 20:46:20;;;;;;;;;;;9.40;99.90;;;;;;10240395;28;84243;-60
2022/01/03 20:51:20;;;;;;;;;;;9.40;99.90;;;;;;10246943;28;84198;-59
2022/01/03 20:56:21;;;;;;;;;;;9.40;99.90;;;;;;10241589;28;84292;-58
2022/01/03 21:01:21;;;;;;;;;;;9.40;99.90;;;;;;10236434;28;84337;-57
2022/01/03 21:06:22;;;;;;;;;;;9.50;99.90;;;;;;10245975;28;84954;-57
2022/01/03 21:11:23;;;;;;;;;;;9.50;99.90;;;;;;10251054;28;85046;-57
2022/01/03 21:16:24;;;;;;;;;;;9.40;99.90;;;;;;10278862;28;84875;-59
2022/01/03 21:21:24;;;;;;;;;;;9.40;99.90;;;;;;10247140;28;84935;-59
2022/01/03 21:26:25;;;;;;;;;;;9.50;99.90;;;;;;10248501;28;85029;-62
2022/01/03 21:31:25;;;;;;;;;;;9.40;99.90;;;;;;10247870;28;84029;-60
2022/01/03 21:36:26;;;;;;;;;;;9.50;99.90;;;;;;10245457;28;85049;-58
2022/01/03 21:41:26;;;;;;;;;;;9.40;99.90;;;;;;10247714;28;84162;-58
2022/01/03 21:46:27;;;;;;;;;;;9.40;99.90;;;;;;10246410;28;85227;-59
2022/01/03 21:51:27;;;;;;;;;;;9.40;99.90;;;;;;10247492;28;85007;-59
2022/01/03 21:56:28;;;;;;;;;;;9.40;99.90;;;;;;10246903;28;84478;-56
2022/01/03 22:01:29;;;;;;;;;;;9.40;99.90;;;;;;10246730;28;84931;-60
2022/01/03 22:06:29;;;;;;;;;;;9.50;99.90;;;;;;10244217;28;84796;-58
2022/01/03 22:11:30;;;;;;;;;;;9.40;99.90;;;;;;10245906;28;84968;-59
2022/01/03 22:16:30;;;;;;;;;;;9.50;99.90;;;;;;10245102;28;84884;-54
2022/01/03 22:21:31;;;;;;;;;;;9.50;99.90;;;;;;10243647;28;84980;-58
2022/01/03 22:26:31;;;;;;;;;;;9.40;99.90;;;;;;10245664;28;84247;-59
2022/01/03 22:31:32;;;;;;;;;;;9.40;99.90;;;;;;10245818;28;84385;-58
2022/01/03 22:36:33;;;;;;;;;;;9.50;99.90;;;;;;10245058;28;84905;-57
2022/01/03 22:41:33;;;;;;;;;;;9.50;99.90;;;;;;10244054;28;83993;-60
2022/01/03 22:46:35;;;;;;;;;;;9.50;99.90;;;;;;10243868;28;84909;-57
2022/01/03 22:51:36;;;;;;;;;;;9.50;99.90;;;;;;10241786;28;84761;-60
2022/01/03 22:56:36;;;;;;;;;;;9.50;99.90;;;;;;10239324;28;84429;-58
2022/01/03 23:01:37;;;;;;;;;;;9.50;99.90;;;;;;10243376;28;84880;-59
2022/01/03 23:06:37;;;;;;;;;;;9.50;99.90;;;;;;10243696;28;85327;-58
2022/01/03 23:11:38;;;;;;;;;;;9.50;99.90;;;;;;10244204;28;84226;-59
2022/01/03 23:16:45;;;;;;;;;;;9.50;99.90;;;;;;10248437;28;84253;-59
2022/01/03 23:21:45;;;;;;;;;;;9.50;99.90;;;;;;10249333;28;84107;-59
2022/01/03 23:26:46;;;;;;;;;;;9.50;99.90;;;;;;10244196;28;84253;-61
2022/01/03 23:31:46;;;;;;;;;;;9.40;99.90;;;;;;10249805;28;84082;-59
2022/01/03 23:36:51;;;;;;;;;;;9.40;99.90;;;;;;10218340;23;84760;-57
2022/01/03 23:41:51;;;;;;;;;;;9.40;99.90;;;;;;10153881;28;84599;-57
2022/01/03 23:46:52;;;;;;;;;;;9.40;99.90;;;;;;10160381;28;87238;-60
2022/01/03 23:51:52;;;;;;;;;;;9.50;99.90;;;;;;10170867;28;84205;-60
2022/01/03 23:56:53;;;;;;;;;;;9.50;99.90;;;;;;10169476;28;84294;-58
